sensor_id;sensor_type;location;lat;lon;timestamp;pressure;altitude;pressure_sealevel;temperature;humidity
19736;BME280;32064;49.310;8.646;2023-10-13T00:01:22;100508.53;;;21.84;73.15
19736;BME280;32064;49.310;8.646;2023-10-13T00:03:48;100515.28;;;21.80;73.28
19736;BME280;32064;49.310;8.646;2023-10-13T00:06:13;100509.56;;;21.83;73.26
19736;BME280;32064;49.310;8.646;2023-10-13T00:08:38;100516.94;;;21.81;73.06
19736;BME280;32064;49.310;8.646;2023-10-13T00:11:05;100516.59;;;21.84;72.41
19736;BME280;32064;49.310;8.646;2023-10-13T00:13:31;100508.38;;;21.86;72.73
19736;BME280;32064;49.310;8.646;2023-10-13T00:16:08;100514.22;;;21.89;73.67
19736;BME280;32064;49.310;8.646;2023-10-13T00:18:35;100514.00;;;21.91;72.73
19736;BME280;32064;49.310;8.646;2023-10-13T00:21:08;100517.91;;;21.88;71.94
19736;BME280;32064;49.310;8.646;2023-10-13T00:23:41;100521.41;;;21.89;72.55
19736;BME280;32064;49.310;8.646;2023-10-13T00:26:23;100519.91;;;21.86;73.13
19736;BME280;32064;49.310;8.646;2023-10-13T00:28:52;100516.22;;;21.87;73.08
19736;BME280;32064;49.310;8.646;2023-10-13T00:31:25;100510.34;;;21.92;72.69
19736;BME280;32064;49.310;8.646;2023-10-13T00:34:02;100505.66;;;21.94;72.61
19736;BME280;32064;49.310;8.646;2023-10-13T00:36:50;100509.16;;;21.94;72.80
19736;BME280;32064;49.310;8.646;2023-10-13T00:39:35;100508.13;;;21.95;72.38
19736;BME280;32064;49.310;8.646;2023-10-13T00:42:09;100507.97;;;21.97;73.41
19736;BME280;32064;49.310;8.646;2023-10-13T00:44:43;100511.47;;;21.97;73.13
19736;BME280;32064;49.310;8.646;2023-10-13T00:47:14;100500.75;;;21.97;73.48
19736;BME280;32064;49.310;8.646;2023-10-13T00:49:46;100508.50;;;21.92;73.77
19736;BME280;32064;49.310;8.646;2023-10-13T00:52:13;100502.47;;;21.90;73.73
19736;BME280;32064;49.310;8.646;2023-10-13T00:54:42;100494.25;;;21.92;73.33
19736;BME280;32064;49.310;8.646;2023-10-13T00:57:14;100498.13;;;21.89;73.20
19736;BME280;32064;49.310;8.646;2023-10-13T00:59:52;100500.63;;;21.91;72.96
19736;BME280;32064;49.310;8.646;2023-10-13T01:02:22;100486.75;;;21.87;72.56
19736;BME280;32064;49.310;8.646;2023-10-13T01:05:06;100483.97;;;21.81;72.45
19736;BME280;32064;49.310;8.646;2023-10-13T01:07:38;100481.19;;;21.74;73.42
19736;BME280;32064;49.310;8.646;2023-10-13T01:10:04;100482.00;;;21.74;73.23
19736;BME280;32064;49.310;8.646;2023-10-13T01:12:30;100478.31;;;21.75;73.18
19736;BME280;32064;49.310;8.646;2023-10-13T01:14:57;100470.63;;;21.72;73.14
19736;BME280;32064;49.310;8.646;2023-10-13T01:17:22;100475.53;;;21.69;73.66
19736;BME280;32064;49.310;8.646;2023-10-13T01:19:49;100482.72;;;21.68;72.43
19736;BME280;32064;49.310;8.646;2023-10-13T01:22:14;100476.72;;;21.66;72.84
19736;BME280;32064;49.310;8.646;2023-10-13T01:24:40;100474.84;;;21.67;72.89
19736;BME280;32064;49.310;8.646;2023-10-13T01:27:06;100471.16;;;21.68;72.35
19736;BME280;32064;49.310;8.646;2023-10-13T01:29:50;100464.66;;;21.62;72.44
19736;BME280;32064;49.310;8.646;2023-10-13T01:32:22;100459.50;;;21.61;72.07
19736;BME280;32064;49.310;8.646;2023-10-13T01:34:48;100451.00;;;21.57;72.06
19736;BME280;32064;49.310;8.646;2023-10-13T01:37:15;100446.28;;;21.59;72.21
19736;BME280;32064;49.310;8.646;2023-10-13T01:39:44;100452.47;;;21.60;72.54
19736;BME280;32064;49.310;8.646;2023-10-13T01:42:13;100453.47;;;21.59;72.08
19736;BME280;32064;49.310;8.646;2023-10-13T01:44:45;100456.63;;;21.62;72.38
19736;BME280;32064;49.310;8.646;2023-10-13T01:47:10;100447.59;;;21.63;71.71
19736;BME280;32064;49.310;8.646;2023-10-13T01:49:35;100446.78;;;21.63;72.28
19736;BME280;32064;49.310;8.646;2023-10-13T01:52:11;100448.44;;;21.64;72.41
19736;BME280;32064;49.310;8.646;2023-10-13T01:54:40;100448.59;;;21.62;71.34
19736;BME280;32064;49.310;8.646;2023-10-13T01:57:06;100440.75;;;21.61;72.22
19736;BME280;32064;49.310;8.646;2023-10-13T01:59:32;100436.41;;;21.60;71.96
19736;BME280;32064;49.310;8.646;2023-10-13T02:01:57;100435.56;;;21.59;72.33
19736;BME280;32064;49.310;8.646;2023-10-13T02:04:27;100434.94;;;21.57;71.20
19736;BME280;32064;49.310;8.646;2023-10-13T02:06:52;100436.13;;;21.55;71.16
19736;BME280;32064;49.310;8.646;2023-10-13T02:09:17;100436.47;;;21.51;71.54
19736;BME280;32064;49.310;8.646;2023-10-13T02:11:52;100431.66;;;21.47;71.32
19736;BME280;32064;49.310;8.646;2023-10-13T02:14:22;100424.13;;;21.42;72.00
19736;BME280;32064;49.310;8.646;2023-10-13T02:16:49;100424.50;;;21.39;70.75
19736;BME280;32064;49.310;8.646;2023-10-13T02:19:16;100426.50;;;21.37;71.93
19736;BME280;32064;49.310;8.646;2023-10-13T02:21:44;100427.50;;;21.36;70.99
19736;BME280;32064;49.310;8.646;2023-10-13T02:24:10;100418.53;;;21.29;71.34
19736;BME280;32064;49.310;8.646;2023-10-13T02:26:44;100420.69;;;21.25;71.21
19736;BME280;32064;49.310;8.646;2023-10-13T02:29:09;100420.91;;;21.24;71.22
19736;BME280;32064;49.310;8.646;2023-10-13T02:31:40;100419.56;;;21.20;71.07
19736;BME280;32064;49.310;8.646;2023-10-13T02:34:06;100418.25;;;21.16;71.53
19736;BME280;32064;49.310;8.646;2023-10-13T02:36:40;100414.59;;;21.08;72.08
19736;BME280;32064;49.310;8.646;2023-10-13T02:39:14;100407.97;;;21.04;71.48
19736;BME280;32064;49.310;8.646;2023-10-13T02:41:41;100405.31;;;20.96;71.73
19736;BME280;32064;49.310;8.646;2023-10-13T02:44:10;100407.53;;;20.93;71.63
19736;BME280;32064;49.310;8.646;2023-10-13T02:46:45;100408.38;;;20.85;72.22
19736;BME280;32064;49.310;8.646;2023-10-13T02:49:15;100415.09;;;20.81;71.52
19736;BME280;32064;49.310;8.646;2023-10-13T02:51:44;100409.44;;;20.76;73.28
19736;BME280;32064;49.310;8.646;2023-10-13T02:54:10;100404.09;;;20.76;72.15
19736;BME280;32064;49.310;8.646;2023-10-13T02:56:39;100403.59;;;20.72;72.19
19736;BME280;32064;49.310;8.646;2023-10-13T02:59:14;100395.75;;;20.71;71.79
19736;BME280;32064;49.310;8.646;2023-10-13T03:01:40;100396.91;;;20.68;72.41
19736;BME280;32064;49.310;8.646;2023-10-13T03:04:05;100405.44;;;20.63;72.73
19736;BME280;32064;49.310;8.646;2023-10-13T03:06:34;100404.63;;;20.63;72.74
19736;BME280;32064;49.310;8.646;2023-10-13T03:09:02;100384.25;;;20.62;72.59
19736;BME280;32064;49.310;8.646;2023-10-13T03:11:47;100397.31;;;20.57;72.82
19736;BME280;32064;49.310;8.646;2023-10-13T03:14:19;100390.94;;;20.58;72.66
19736;BME280;32064;49.310;8.646;2023-10-13T03:16:52;100382.75;;;20.59;73.01
19736;BME280;32064;49.310;8.646;2023-10-13T03:19:18;100387.75;;;20.62;72.72
19736;BME280;32064;49.310;8.646;2023-10-13T03:21:47;100379.56;;;20.64;72.77
19736;BME280;32064;49.310;8.646;2023-10-13T03:24:22;100379.56;;;20.64;72.27
19736;BME280;32064;49.310;8.646;2023-10-13T03:27:04;100385.28;;;20.61;72.02
19736;BME280;32064;49.310;8.646;2023-10-13T03:29:44;100386.56;;;20.65;72.36
19736;BME280;32064;49.310;8.646;2023-10-13T03:32:14;100385.09;;;20.62;72.29
19736;BME280;32064;49.310;8.646;2023-10-13T03:34:47;100383.59;;;20.60;72.43
19736;BME280;32064;49.310;8.646;2023-10-13T03:37:24;100385.59;;;20.58;72.48
19736;BME280;32064;49.310;8.646;2023-10-13T03:40:05;100382.75;;;20.59;72.54
19736;BME280;32064;49.310;8.646;2023-10-13T03:42:58;100381.09;;;20.58;72.68
19736;BME280;32064;49.310;8.646;2023-10-13T03:45:31;100389.28;;;20.57;72.12
19736;BME280;32064;49.310;8.646;2023-10-13T03:48:07;100380.25;;;20.58;72.53
19736;BME280;32064;49.310;8.646;2023-10-13T03:50:38;100379.41;;;20.57;72.00
19736;BME280;32064;49.310;8.646;2023-10-13T03:53:13;100385.59;;;20.58;72.77
19736;BME280;32064;49.310;8.646;2023-10-13T03:55:39;100374.91;;;20.58;72.24
19736;BME280;32064;49.310;8.646;2023-10-13T03:58:05;100372.22;;;20.58;72.66
19736;BME280;32064;49.310;8.646;2023-10-13T04:00:30;100367.91;;;20.57;71.72
19736;BME280;32064;49.310;8.646;2023-10-13T04:02:57;100367.06;;;20.56;71.75
19736;BME280;32064;49.310;8.646;2023-10-13T04:05:32;100358.88;;;20.50;71.57
19736;BME280;32064;49.310;8.646;2023-10-13T04:08:06;100354.38;;;20.50;71.74
19736;BME280;32064;49.310;8.646;2023-10-13T04:10:57;100349.19;;;20.49;71.52
19736;BME280;32064;49.310;8.646;2023-10-13T04:13:23;100357.03;;;20.50;71.91
19736;BME280;32064;49.310;8.646;2023-10-13T04:16:08;100348.34;;;20.48;70.79
19736;BME280;32064;49.310;8.646;2023-10-13T04:18:49;100347.53;;;20.48;71.45
19736;BME280;32064;49.310;8.646;2023-10-13T04:21:23;100344.03;;;20.47;71.34
19736;BME280;32064;49.310;8.646;2023-10-13T04:24:09;100340.53;;;20.47;71.04
19736;BME280;32064;49.310;8.646;2023-10-13T04:26:51;100340.84;;;20.44;71.20
19736;BME280;32064;49.310;8.646;2023-10-13T04:29:35;100345.34;;;20.43;70.90
19736;BME280;32064;49.310;8.646;2023-10-13T04:32:13;100331.69;;;20.38;70.74
19736;BME280;32064;49.310;8.646;2023-10-13T04:34:43;100337.03;;;20.38;70.79
19736;BME280;32064;49.310;8.646;2023-10-13T04:37:12;100334.34;;;20.38;69.95
19736;BME280;32064;49.310;8.646;2023-10-13T04:39:58;100320.16;;;20.37;69.74
19736;BME280;32064;49.310;8.646;2023-10-13T04:42:36;100328.69;;;20.41;69.96
19736;BME280;32064;49.310;8.646;2023-10-13T04:45:17;100332.66;;;20.45;69.83
19736;BME280;32064;49.310;8.646;2023-10-13T04:48:00;100329.63;;;20.48;69.73
19736;BME280;32064;49.310;8.646;2023-10-13T04:50:46;100326.81;;;20.50;70.51
19736;BME280;32064;49.310;8.646;2023-10-13T04:53:16;100323.94;;;20.51;69.92
19736;BME280;32064;49.310;8.646;2023-10-13T04:55:59;100323.13;;;20.51;70.18
19736;BME280;32064;49.310;8.646;2023-10-13T04:58:28;100328.63;;;20.49;69.76
19736;BME280;32064;49.310;8.646;2023-10-13T05:01:00;100333.50;;;20.46;69.55
19736;BME280;32064;49.310;8.646;2023-10-13T05:03:44;100326.69;;;20.35;70.29
19736;BME280;32064;49.310;8.646;2023-10-13T05:06:19;100319.69;;;20.34;69.73
19736;BME280;32064;49.310;8.646;2023-10-13T05:09:03;100321.72;;;20.24;70.48
19736;BME280;32064;49.310;8.646;2023-10-13T05:11:48;100325.91;;;20.18;70.09
19736;BME280;32064;49.310;8.646;2023-10-13T05:14:32;100322.75;;;20.14;69.61
19736;BME280;32064;49.310;8.646;2023-10-13T05:17:15;100317.25;;;20.16;69.78
19736;BME280;32064;49.310;8.646;2023-10-13T05:19:59;100313.56;;;20.17;68.55
19736;BME280;32064;49.310;8.646;2023-10-13T05:22:43;100314.56;;;20.16;69.20
19736;BME280;32064;49.310;8.646;2023-10-13T05:25:27;100320.06;;;20.14;69.73
19736;BME280;32064;49.310;8.646;2023-10-13T05:28:11;100318.94;;;20.09;69.37
19736;BME280;32064;49.310;8.646;2023-10-13T05:30:58;100313.44;;;20.02;69.95
19736;BME280;32064;49.310;8.646;2023-10-13T05:33:43;100309.09;;;20.01;68.82
19736;BME280;32064;49.310;8.646;2023-10-13T05:36:27;100311.75;;;20.01;68.80
19736;BME280;32064;49.310;8.646;2023-10-13T05:39:11;100312.09;;;19.98;69.01
19736;BME280;32064;49.310;8.646;2023-10-13T05:41:55;100304.94;;;19.99;68.60
19736;BME280;32064;49.310;8.646;2023-10-13T05:44:38;100306.59;;;20.00;68.16
19736;BME280;32064;49.310;8.646;2023-10-13T05:47:21;100313.28;;;19.95;68.89
19736;BME280;32064;49.310;8.646;2023-10-13T05:50:06;100307.94;;;19.95;68.63
19736;BME280;32064;49.310;8.646;2023-10-13T05:52:47;100305.78;;;19.91;68.36
19736;BME280;32064;49.310;8.646;2023-10-13T05:55:29;100311.47;;;19.88;68.45
19736;BME280;32064;49.310;8.646;2023-10-13T05:58:13;100305.94;;;19.89;68.65
19736;BME280;32064;49.310;8.646;2023-10-13T06:00:58;100300.78;;;19.88;68.04
19736;BME280;32064;49.310;8.646;2023-10-13T06:03:42;100303.63;;;19.86;67.79
19736;BME280;32064;49.310;8.646;2023-10-13T06:06:26;100300.78;;;19.88;67.79
19736;BME280;32064;49.310;8.646;2023-10-13T06:09:10;100299.13;;;19.87;67.72
19736;BME280;32064;49.310;8.646;2023-10-13T06:11:53;100311.63;;;19.86;67.91
19736;BME280;32064;49.310;8.646;2023-10-13T06:14:37;100299.28;;;19.85;67.36
19736;BME280;32064;49.310;8.646;2023-10-13T06:17:22;100297.47;;;19.86;67.99
19736;BME280;32064;49.310;8.646;2023-10-13T06:20:06;100294.94;;;19.84;67.67
19736;BME280;32064;49.310;8.646;2023-10-13T06:22:50;100288.13;;;19.82;67.95
19736;BME280;32064;49.310;8.646;2023-10-13T06:25:35;100301.63;;;19.88;67.92
19736;BME280;32064;49.310;8.646;2023-10-13T06:28:19;100298.44;;;19.93;67.19
19736;BME280;32064;49.310;8.646;2023-10-13T06:31:05;100301.28;;;19.91;67.53
19736;BME280;32064;49.310;8.646;2023-10-13T06:33:36;100294.59;;;19.95;67.63
19736;BME280;32064;49.310;8.646;2023-10-13T06:36:09;100295.22;;;20.06;68.08
19736;BME280;32064;49.310;8.646;2023-10-13T06:38:37;100300.19;;;20.17;nan
19736;BME280;32064;49.310;8.646;2023-10-13T06:41:03;100305.16;;;20.28;68.09
19736;BME280;32064;49.310;8.646;2023-10-13T06:43:34;100291.38;;;20.48;68.43
19736;BME280;32064;49.310;8.646;2023-10-13T06:46:09;100301.53;;;20.60;68.38
19736;BME280;32064;49.310;8.646;2023-10-13T06:48:40;100304.00;;;20.70;68.61
19736;BME280;32064;49.310;8.646;2023-10-13T06:51:07;100301.09;;;20.80;68.09
19736;BME280;32064;49.310;8.646;2023-10-13T06:53:48;100311.59;;;20.90;68.10
19736;BME280;32064;49.310;8.646;2023-10-13T06:56:15;100300.81;;;20.98;67.88
19736;BME280;32064;49.310;8.646;2023-10-13T06:58:55;100307.94;;;21.05;67.17
19736;BME280;32064;49.310;8.646;2023-10-13T07:01:26;100309.75;;;21.13;66.75
19736;BME280;32064;49.310;8.646;2023-10-13T07:03:51;100313.59;;;21.11;66.84
19736;BME280;32064;49.310;8.646;2023-10-13T07:06:27;100307.38;;;21.18;66.67
19736;BME280;32064;49.310;8.646;2023-10-13T07:08:52;100309.47;;;21.23;66.97
19736;BME280;32064;49.310;8.646;2023-10-13T07:11:19;100314.66;;;21.24;66.38
19736;BME280;32064;49.310;8.646;2023-10-13T07:14:04;100309.59;;;21.38;66.04
19736;BME280;32064;49.310;8.646;2023-10-13T07:16:59;100322.97;;;21.38;65.75
19736;BME280;32064;49.310;8.646;2023-10-13T07:19:29;100329.19;;;21.53;66.37
19736;BME280;32064;49.310;8.646;2023-10-13T07:21:55;100318.56;;;21.60;66.04
19736;BME280;32064;49.310;8.646;2023-10-13T07:24:27;100312.50;;;21.66;65.04
19736;BME280;32064;49.310;8.646;2023-10-13T07:26:59;100311.22;;;21.77;64.52
19736;BME280;32064;49.310;8.646;2023-10-13T07:29:31;100307.84;;;21.83;64.27
19736;BME280;32064;49.310;8.646;2023-10-13T07:32:01;100308.75;;;21.90;64.83
19736;BME280;32064;49.310;8.646;2023-10-13T07:34:30;100317.72;;;21.97;64.66
19736;BME280;32064;49.310;8.646;2023-10-13T07:37:01;100311.25;;;22.06;64.76
19736;BME280;32064;49.310;8.646;2023-10-13T07:39:28;100322.19;;;22.19;64.16
19736;BME280;32064;49.310;8.646;2023-10-13T07:41:59;100314.03;;;22.42;64.07
19736;BME280;32064;49.310;8.646;2023-10-13T07:44:32;100309.53;;;22.64;64.83
19736;BME280;32064;49.310;8.646;2023-10-13T07:47:02;100314.94;;;22.86;63.71
19736;BME280;32064;49.310;8.646;2023-10-13T07:49:31;100313.59;;;23.12;64.12
19736;BME280;32064;49.310;8.646;2023-10-13T07:52:01;100311.91;;;23.53;64.41
19736;BME280;32064;49.310;8.646;2023-10-13T07:54:42;100312.03;;;23.95;63.97
19736;BME280;32064;49.310;8.646;2023-10-13T07:57:07;100306.75;;;24.15;62.96
19736;BME280;32064;49.310;8.646;2023-10-13T07:59:33;100309.34;;;24.36;61.43
19736;BME280;32064;49.310;8.646;2023-10-13T08:02:03;100302.47;;;24.75;61.02
19736;BME280;32064;49.310;8.646;2023-10-13T08:04:37;100295.53;;;25.27;60.44
19736;BME280;32064;49.310;8.646;2023-10-13T08:07:03;100300.31;;;25.65;59.36
19736;BME280;32064;49.310;8.646;2023-10-13T08:09:41;100294.44;;;26.08;57.87
19736;BME280;32064;49.310;8.646;2023-10-13T08:12:17;100291.88;;;26.33;58.15
19736;BME280;32064;49.310;8.646;2023-10-13T08:14:47;100283.44;;;26.68;56.34
19736;BME280;32064;49.310;8.646;2023-10-13T08:17:12;100282.13;;;27.16;56.78
19736;BME280;32064;49.310;8.646;2023-10-13T08:19:39;100282.09;;;27.66;55.28
19736;BME280;32064;49.310;8.646;2023-10-13T08:22:11;100281.56;;;28.01;54.10
19736;BME280;32064;49.310;8.646;2023-10-13T08:24:43;100287.56;;;28.39;54.50
19736;BME280;32064;49.310;8.646;2023-10-13T08:27:08;100282.03;;;28.64;53.01
19736;BME280;32064;49.310;8.646;2023-10-13T08:29:43;100287.03;;;28.49;52.00
19736;BME280;32064;49.310;8.646;2023-10-13T08:32:25;100288.31;;;28.28;49.63
19736;BME280;32064;49.310;8.646;2023-10-13T08:34:55;100291.63;;;28.12;48.25
19736;BME280;32064;49.310;8.646;2023-10-13T08:37:21;100293.88;;;27.96;48.78
19736;BME280;32064;49.310;8.646;2023-10-13T08:39:47;100289.25;;;27.79;47.41
19736;BME280;32064;49.310;8.646;2023-10-13T08:42:51;100280.50;;;27.58;48.50
19736;BME280;32064;49.310;8.646;2023-10-13T08:45:38;100278.56;;;27.40;48.39
19736;BME280;32064;49.310;8.646;2023-10-13T08:48:05;100281.78;;;27.30;47.92
19736;BME280;32064;49.310;8.646;2023-10-13T08:50:47;100284.38;;;27.19;48.03
19736;BME280;32064;49.310;8.646;2023-10-13T08:53:29;100284.38;;;27.19;47.12
19736;BME280;32064;49.310;8.646;2023-10-13T08:56:09;100286.50;;;27.03;48.04
19736;BME280;32064;49.310;8.646;2023-10-13T08:58:59;100291.66;;;27.12;48.56
19736;BME280;32064;49.310;8.646;2023-10-13T09:01:35;100287.56;;;27.02;48.66
19736;BME280;32064;49.310;8.646;2023-10-13T09:04:19;100278.09;;;27.25;46.19
19736;BME280;32064;49.310;8.646;2023-10-13T09:12:16;100275.09;;;28.99;45.81
19736;BME280;32064;49.310;8.646;2023-10-13T09:14:51;100274.97;;;29.71;45.04
19736;BME280;32064;49.310;8.646;2023-10-13T09:17:27;100269.56;;;30.23;44.44
19736;BME280;32064;49.310;8.646;2023-10-13T09:20:08;100264.28;;;30.74;42.90
19736;BME280;32064;49.310;8.646;2023-10-13T09:22:50;100271.25;;;31.44;42.96
19736;BME280;32064;49.310;8.646;2023-10-13T09:25:39;100272.19;;;32.10;42.39
19736;BME280;32064;49.310;8.646;2023-10-13T09:28:20;100264.81;;;32.82;40.85
19736;BME280;32064;49.310;8.646;2023-10-13T09:30:52;100264.53;;;33.48;39.29
19736;BME280;32064;49.310;8.646;2023-10-13T09:33:23;100259.94;;;33.96;37.08
19736;BME280;32064;49.310;8.646;2023-10-13T09:36:15;100267.56;;;34.57;37.92
19736;BME280;32064;49.310;8.646;2023-10-13T09:38:42;100256.66;;;34.87;36.36
19736;BME280;32064;49.310;8.646;2023-10-13T09:41:28;100243.50;;;35.46;36.12
19736;BME280;32064;49.310;8.646;2023-10-13T09:43:57;100254.31;;;35.97;34.81
19736;BME280;32064;49.310;8.646;2023-10-13T09:46:25;100247.78;;;36.48;34.93
19736;BME280;32064;49.310;8.646;2023-10-13T09:49:07;100223.28;;;37.06;34.91
19736;BME280;32064;49.310;8.646;2023-10-13T09:51:40;100226.09;;;37.25;33.46
19736;BME280;32064;49.310;8.646;2023-10-13T09:54:30;100224.50;;;37.72;32.64
19736;BME280;32064;49.310;8.646;2023-10-13T09:57:00;100227.06;;;38.11;31.98
19736;BME280;32064;49.310;8.646;2023-10-13T09:59:33;100216.88;;;38.50;30.49
19736;BME280;32064;49.310;8.646;2023-10-13T10:02:05;100214.03;;;38.74;30.96
19736;BME280;32064;49.310;8.646;2023-10-13T10:04:51;100207.13;;;39.09;29.98
19736;BME280;32064;49.310;8.646;2023-10-13T10:07:27;100206.69;;;39.48;28.51
19736;BME280;32064;49.310;8.646;2023-10-13T10:09:57;100207.91;;;39.98;28.70
19736;BME280;32064;49.310;8.646;2023-10-13T10:15:11;100194.50;;;40.41;28.20
19736;BME280;32064;49.310;8.646;2023-10-13T10:17:46;100188.97;;;40.77;27.49
19736;BME280;32064;49.310;8.646;2023-10-13T10:20:12;100187.34;;;41.08;26.43
19736;BME280;32064;49.310;8.646;2023-10-13T10:22:55;100177.75;;;41.05;24.84
19736;BME280;32064;49.310;8.646;2023-10-13T10:25:29;100186.09;;;41.14;23.91
19736;BME280;32064;49.310;8.646;2023-10-13T10:27:58;100182.59;;;41.31;25.71
19736;BME280;32064;49.310;8.646;2023-10-13T10:30:28;100182.31;;;41.10;25.07
19736;BME280;32064;49.310;8.646;2023-10-13T10:32:55;100183.72;;;40.98;24.74
19736;BME280;32064;49.310;8.646;2023-10-13T10:35:25;100176.91;;;41.04;24.81
19736;BME280;32064;49.310;8.646;2023-10-13T10:38:17;100178.97;;;40.68;23.43
19736;BME280;32064;49.310;8.646;2023-10-13T10:43:29;100172.53;;;41.35;24.37
19736;BME280;32064;49.310;8.646;2023-10-13T10:46:08;100177.84;;;41.62;23.86
19736;BME280;32064;49.310;8.646;2023-10-13T10:48:36;100178.66;;;40.69;23.61
19736;BME280;32064;49.310;8.646;2023-10-13T10:51:08;100175.84;;;39.88;23.96
19736;BME280;32064;49.310;8.646;2023-10-13T10:53:40;100166.44;;;39.20;24.27
19736;BME280;32064;49.310;8.646;2023-10-13T10:56:13;100174.47;;;38.89;23.93
19736;BME280;32064;49.310;8.646;2023-10-13T10:58:49;100171.13;;;38.73;24.81
19736;BME280;32064;49.310;8.646;2023-10-13T11:01:23;100156.06;;;38.32;26.00
19736;BME280;32064;49.310;8.646;2023-10-13T11:04:03;100153.59;;;37.93;25.54
19736;BME280;32064;49.310;8.646;2023-10-13T11:06:56;100144.84;;;37.48;26.11
19736;BME280;32064;49.310;8.646;2023-10-13T11:09:32;100140.16;;;37.24;26.12
19736;BME280;32064;49.310;8.646;2023-10-13T11:12:12;100130.50;;;36.74;26.57
19736;BME280;32064;49.310;8.646;2023-10-13T11:14:45;100117.81;;;36.49;26.79
19736;BME280;32064;49.310;8.646;2023-10-13T11:17:20;100125.53;;;36.02;26.80
19736;BME280;32064;49.310;8.646;2023-10-13T11:19:49;100126.31;;;35.58;27.23
19736;BME280;32064;49.310;8.646;2023-10-13T11:22:20;100112.22;;;35.15;27.19
19736;BME280;32064;49.310;8.646;2023-10-13T11:24:59;100116.94;;;34.69;28.08
19736;BME280;32064;49.310;8.646;2023-10-13T11:27:31;100103.22;;;34.12;28.87
19736;BME280;32064;49.310;8.646;2023-10-13T11:30:24;100110.50;;;33.81;28.86
19736;BME280;32064;49.310;8.646;2023-10-13T11:33:04;100101.97;;;33.52;27.86
19736;BME280;32064;49.310;8.646;2023-10-13T11:35:35;100096.69;;;33.40;28.03
19736;BME280;32064;49.310;8.646;2023-10-13T11:38:26;100087.53;;;33.09;29.25
19736;BME280;32064;49.310;8.646;2023-10-13T11:41:03;100095.13;;;33.02;30.06
19736;BME280;32064;49.310;8.646;2023-10-13T11:43:45;100092.50;;;32.80;30.35
19736;BME280;32064;49.310;8.646;2023-10-13T11:46:25;100090.34;;;32.82;29.46
19736;BME280;32064;49.310;8.646;2023-10-13T11:49:00;100085.44;;;32.79;29.70
19736;BME280;32064;49.310;8.646;2023-10-13T11:51:30;100074.56;;;32.89;29.60
19736;BME280;32064;49.310;8.646;2023-10-13T11:53:58;100081.75;;;33.00;30.67
19736;BME280;32064;49.310;8.646;2023-10-13T11:56:23;100064.91;;;33.08;30.78
19736;BME280;32064;49.310;8.646;2023-10-13T11:58:49;100067.72;;;33.24;30.00
19736;BME280;32064;49.310;8.646;2023-10-13T12:01:15;100063.38;;;33.33;29.88
19736;BME280;32064;49.310;8.646;2023-10-13T12:03:50;100056.06;;;33.44;30.15
19736;BME280;32064;49.310;8.646;2023-10-13T12:06:35;100048.69;;;33.44;30.32
19736;BME280;32064;49.310;8.646;2023-10-13T12:09:04;100053.06;;;33.50;30.13
19736;BME280;32064;49.310;8.646;2023-10-13T12:11:59;100042.97;;;33.51;30.63
19736;BME280;32064;49.310;8.646;2023-10-13T12:14:26;100023.38;;;33.59;29.80
19736;BME280;32064;49.310;8.646;2023-10-13T12:16:57;100031.56;;;33.64;29.68
19736;BME280;32064;49.310;8.646;2023-10-13T12:19:29;100027.75;;;33.70;30.42
19736;BME280;32064;49.310;8.646;2023-10-13T12:21:55;100028.59;;;33.76;29.90
19736;BME280;32064;49.310;8.646;2023-10-13T12:24:25;100023.69;;;33.83;30.59
19736;BME280;32064;49.310;8.646;2023-10-13T12:27:04;100017.16;;;33.89;29.10
19736;BME280;32064;49.310;8.646;2023-10-13T12:29:49;100010.03;;;33.93;30.24
19736;BME280;32064;49.310;8.646;2023-10-13T12:32:17;100012.78;;;33.98;30.47
19736;BME280;32064;49.310;8.646;2023-10-13T12:34:48;100006.50;;;33.98;30.05
19736;BME280;32064;49.310;8.646;2023-10-13T12:37:30;99994.22;;;33.95;29.93
19736;BME280;32064;49.310;8.646;2023-10-13T12:40:06;99990.13;;;33.98;29.21
19736;BME280;32064;49.310;8.646;2023-10-13T12:42:51;99990.09;;;33.88;29.97
19736;BME280;32064;49.310;8.646;2023-10-13T12:45:45;99989.53;;;33.60;30.01
19736;BME280;32064;49.310;8.646;2023-10-13T12:48:30;99985.94;;;33.44;29.96
19736;BME280;32064;49.310;8.646;2023-10-13T12:51:14;99994.28;;;33.17;30.15
19736;BME280;32064;49.310;8.646;2023-10-13T12:53:50;99995.13;;;33.13;30.53
19736;BME280;32064;49.310;8.646;2023-10-13T12:56:16;99986.94;;;33.18;29.72
19736;BME280;32064;49.310;8.646;2023-10-13T12:58:43;99989.38;;;33.14;30.48
19736;BME280;32064;49.310;8.646;2023-10-13T13:01:18;99990.47;;;33.13;30.56
19736;BME280;32064;49.310;8.646;2023-10-13T13:03:46;99982.25;;;33.03;30.98
19736;BME280;32064;49.310;8.646;2023-10-13T13:06:19;99980.06;;;33.00;30.25
19736;BME280;32064;49.310;8.646;2023-10-13T13:08:54;99977.81;;;32.92;30.27
19736;BME280;32064;49.310;8.646;2023-10-13T13:11:20;99976.13;;;32.80;30.88
19736;BME280;32064;49.310;8.646;2023-10-13T13:13:46;99967.59;;;32.67;29.90
19736;BME280;32064;49.310;8.646;2023-10-13T13:16:17;99971.28;;;32.45;29.51
19736;BME280;32064;49.310;8.646;2023-10-13T13:18:55;99970.63;;;32.33;30.47
19736;BME280;32064;49.310;8.646;2023-10-13T13:21:21;99965.66;;;32.19;30.46
19736;BME280;32064;49.310;8.646;2023-10-13T13:23:49;99965.09;;;32.17;30.88
19736;BME280;32064;49.310;8.646;2023-10-13T13:26:15;99952.75;;;32.05;31.27
19736;BME280;32064;49.310;8.646;2023-10-13T13:28:44;99952.91;;;31.93;30.96
19736;BME280;32064;49.310;8.646;2023-10-13T13:31:10;99940.88;;;31.89;30.89
19736;BME280;32064;49.310;8.646;2023-10-13T13:33:38;99946.06;;;31.90;31.04
19736;BME280;32064;49.310;8.646;2023-10-13T13:36:06;99933.50;;;31.84;31.52
19736;BME280;32064;49.310;8.646;2023-10-13T13:38:32;99930.47;;;31.81;32.35